Time;durP1;ratioP1;P1;durP2;ratioP2;P2;SDS_P1;SDS_P2;PMS_P1;PMS_P2;Temp;Humidity;BMP_temperature;BMP_pressure;BME280_temperature;BME280_humidity;BME280_pressure;Samples;Min_cycle;Max_cycle;Signal;HPM_P1;HPM_P2
2023/10/13 00:01:23;;;;;;;62.65;40.75;;;16.60;99.90;;;;;;5064623;28;20029;-62
2023/10/13 00:03:51;;;;;;;57.60;40.67;;;16.60;99.90;;;;;;5066077;28;20043;-62
2023/10/13 00:06:18;;;;;;;60.58;39.88;;;16.60;99.90;;;;;;5059516;28;20079;-63
2023/10/13 00:08:44;;;;;;;61.95;40.65;;;16.60;99.90;;;;;;5062945;28;20119;-62
2023/10/13 00:11:13;;;;;;;63.38;40.08;;;16.60;99.90;;;;;;5060820;28;20059;-62
2023/10/13 00:13:44;;;;;;;60.33;41.30;;;16.60;99.90;;;;;;5053482;28;20091;-63
2023/10/13 00:16:16;;;;;;;56.88;40.85;;;16.60;99.90;;;;;;5060453;28;20045;-62
2023/10/13 00:18:42;;;;;;;60.83;42.78;;;16.60;99.90;;;;;;5054464;28;20037;-62
2023/10/13 00:21:14;;;;;;;59.28;39.63;;;16.60;99.90;;;;;;5057427;28;20542;-62
2023/10/13 00:23:54;;;;;;;60.50;40.70;;;16.60;99.90;;;;;;5059520;28;20055;-62
2023/10/13 00:26:27;;;;;;;53.63;40.22;;;16.60;99.90;;;;;;5062098;28;20036;-62
2023/10/13 00:31:36;;;;;;;58.40;40.17;;;16.70;99.90;;;;;;5064602;28;20354;-62
2023/10/13 00:34:28;;;;;;;58.40;39.83;;;16.70;99.90;;;;;;5066010;28;20573;-62
2023/10/13 00:39:36;;;;;;;51.15;38.05;;;16.70;99.90;;;;;;5057878;28;20032;-62
2023/10/13 00:42:17;;;;;;;59.70;39.35;;;16.70;99.90;;;;;;5061509;28;20480;-62
2023/10/13 00:44:49;;;;;;;62.28;39.03;;;16.70;99.90;;;;;;5059629;28;20116;-63
2023/10/13 00:50:19;;;;;;;54.45;38.17;;;16.70;99.90;;;;;;5039407;28;20119;-63
2023/10/13 00:52:51;;;;;;;60.85;39.45;;;16.70;99.90;;;;;;5039284;28;20041;-62
2023/10/13 00:55:22;;;;;;;57.45;39.38;;;16.70;99.90;;;;;;5042200;28;20403;-62
2023/10/13 00:57:53;;;;;;;54.95;37.55;;;16.70;99.90;;;;;;5040499;28;20128;-62
2023/10/13 01:00:19;;;;;;;56.90;39.83;;;16.70;99.90;;;;;;5041466;28;20114;-62
2023/10/13 01:02:56;;;;;;;57.13;39.08;;;16.70;99.90;;;;;;5043376;28;20071;-62
2023/10/13 01:05:26;;;;;;;56.40;40.22;;;16.70;99.90;;;;;;5043298;28;20053;-62
2023/10/13 01:07:54;;;;;;;59.28;38.45;;;16.70;99.90;;;;;;5044962;28;20603;-62
2023/10/13 01:10:32;;;;;;;54.10;37.67;;;16.70;99.90;;;;;;5043812;28;20133;-62
2023/10/13 01:13:02;;;;;;;57.60;37.88;;;16.70;99.90;;;;;;5020654;28;20124;-62
2023/10/13 01:15:29;;;;;;;57.53;37.55;;;16.70;99.90;;;;;;5043633;28;20610;-62
2023/10/13 01:18:11;;;;;;;45.85;34.70;;;16.70;99.90;;;;;;5025832;28;20057;-62
2023/10/13 01:20:45;;;;;;;53.47;36.83;;;16.70;99.90;;;;;;5027411;28;20040;-62
2023/10/13 01:23:18;;;;;;;51.70;34.67;;;16.70;99.90;;;;;;5037878;28;20132;-62
2023/10/13 01:25:45;;;;;;;46.20;34.08;;;16.70;99.90;;;;;;5064083;28;20056;-62
2023/10/13 01:28:15;;;;;;;48.95;34.63;;;16.70;99.90;;;;;;5061732;28;20051;-62
2023/10/13 01:30:42;;;;;;;48.13;33.92;;;16.70;99.90;;;;;;5059659;28;20135;-62
2023/10/13 01:33:10;;;;;;;43.58;33.15;;;16.70;99.90;;;;;;5065016;28;20045;-62
2023/10/13 01:35:47;;;;;;;42.50;31.30;;;16.70;99.90;;;;;;5065286;28;20445;-62
2023/10/13 01:38:15;;;;;;;42.42;30.98;;;16.70;99.90;;;;;;5066686;28;20043;-62
2023/10/13 01:40:42;;;;;;;44.70;32.72;;;16.70;99.90;;;;;;5067853;28;20039;-61
2023/10/13 01:43:10;;;;;;;43.25;30.80;;;16.70;99.90;;;;;;5067734;28;20380;-62
2023/10/13 01:45:46;;;;;;;40.38;30.88;;;16.70;99.90;;;;;;5067922;28;20430;-62
2023/10/13 01:48:15;;;;;;;49.47;32.08;;;16.70;99.90;;;;;;5063566;28;20085;-62
2023/10/13 01:50:41;;;;;;;39.63;30.23;;;16.70;99.90;;;;;;5048175;28;20047;-62
2023/10/13 01:53:14;;;;;;;44.13;31.17;;;16.70;99.90;;;;;;5070962;28;20045;-62
2023/10/13 01:55:42;;;;;;;41.03;31.20;;;16.70;99.90;;;;;;5062257;28;20449;-62
2023/10/13 01:58:14;;;;;;;40.85;31.10;;;16.70;99.90;;;;;;5060526;28;20044;-62
2023/10/13 02:00:41;;;;;;;44.28;31.00;;;16.70;99.90;;;;;;5064610;28;20108;-62
2023/10/13 02:03:17;;;;;;;43.13;31.83;;;16.70;99.90;;;;;;5062076;28;20049;-62
2023/10/13 02:05:47;;;;;;;46.38;29.80;;;16.70;99.90;;;;;;5065536;28;20036;-62
2023/10/13 02:08:22;;;;;;;46.08;30.70;;;16.70;99.90;;;;;;5069171;28;20036;-62
2023/10/13 02:10:48;;;;;;;41.53;28.88;;;16.70;99.90;;;;;;5064202;28;20067;-62
2023/10/13 02:13:19;;;;;;;43.17;29.48;;;16.60;99.90;;;;;;5066885;28;20511;-62
2023/10/13 02:15:45;;;;;;;42.92;30.85;;;16.70;99.90;;;;;;5070498;28;20071;-62
2023/10/13 02:18:20;;;;;;;;;;;16.70;99.90;;;;;;5063918;28;20397;-62
2023/10/13 02:20:54;;;;;;;48.53;30.50;;;16.70;99.90;;;;;;5068556;28;19962;-62
2023/10/13 02:23:30;;;;;;;40.40;27.75;;;16.70;99.90;;;;;;5064561;28;20037;-62
2023/10/13 02:26:13;;;;;;;40.90;28.15;;;16.70;99.90;;;;;;5067795;28;20102;-63
2023/10/13 02:28:39;;;;;;;38.38;27.58;;;16.60;99.90;;;;;;5065210;28;20047;-62
2023/10/13 02:31:06;;;;;;;38.85;28.42;;;16.60;99.90;;;;;;5063440;28;20036;-62
2023/10/13 02:33:36;;;;;;;40.55;27.25;;;16.70;99.90;;;;;;5062625;28;20442;-62
2023/10/13 02:36:05;;;;;;;37.30;26.70;;;16.60;99.90;;;;;;5065043;28;20044;-62
2023/10/13 02:38:42;;;;;;;32.83;26.50;;;16.70;99.90;;;;;;5065105;28;20458;-62
2023/10/13 02:41:11;;;;;;;42.13;29.25;;;16.70;99.90;;;;;;5060334;28;20033;-62
2023/10/13 02:43:38;;;;;;;39.55;27.77;;;16.70;99.90;;;;;;5056116;28;20503;-62
2023/10/13 02:46:04;;;;;;;38.80;29.63;;;16.70;99.90;;;;;;5068148;28;20521;-62
2023/10/13 02:48:39;;;;;;;37.60;27.05;;;16.70;99.90;;;;;;5063909;28;20400;-62
2023/10/13 02:51:15;;;;;;;41.80;28.77;;;16.70;99.90;;;;;;5070360;28;20476;-60
2023/10/13 02:53:41;;;;;;;43.80;28.98;;;16.70;99.90;;;;;;5069935;28;20046;-61
2023/10/13 02:56:07;;;;;;;42.80;28.08;;;16.70;99.90;;;;;;5068660;28;20518;-60
2023/10/13 02:58:39;;;;;;;39.17;27.13;;;16.70;99.90;;;;;;5063335;28;20124;-61
2023/10/13 03:01:17;;;;;;;35.45;26.75;;;16.70;99.90;;;;;;5067082;28;20032;-61
2023/10/13 03:03:53;;;;;;;42.00;28.73;;;16.70;99.90;;;;;;5059932;28;20511;-61
2023/10/13 03:06:32;;;;;;;41.55;28.10;;;16.70;99.90;;;;;;5067898;28;20044;-60
2023/10/13 03:09:13;;;;;;;42.83;28.85;;;16.70;99.90;;;;;;5066197;28;20037;-60
2023/10/13 03:11:47;;;;;;;40.92;27.05;;;16.70;99.90;;;;;;5063095;28;20048;-60
2023/10/13 03:14:23;;;;;;;38.17;27.38;;;16.70;99.90;;;;;;5066104;28;20531;-62
2023/10/13 03:16:54;;;;;;;35.80;26.90;;;16.70;99.90;;;;;;5066523;28;20040;-61
2023/10/13 03:19:19;;;;;;;38.97;27.92;;;16.70;99.90;;;;;;5065282;28;20043;-60
2023/10/13 03:21:54;;;;;;;38.35;28.00;;;16.70;99.90;;;;;;5068609;28;20394;-61
2023/10/13 03:24:33;;;;;;;34.75;27.27;;;16.70;99.90;;;;;;5062098;28;20499;-60
2023/10/13 03:27:12;;;;;;;38.17;28.35;;;16.70;99.90;;;;;;5065952;28;20080;-60
2023/10/13 03:29:45;;;;;;;41.08;27.77;;;16.70;99.90;;;;;;5064608;28;20392;-61
2023/10/13 03:32:15;;;;;;;37.30;28.38;;;16.70;99.90;;;;;;5059237;28;20044;-61
2023/10/13 03:34:54;;;;;;;37.60;26.85;;;16.70;99.90;;;;;;5066593;28;20067;-60
2023/10/13 03:40:06;;;;;;;40.47;28.98;;;16.70;99.90;;;;;;5060451;28;20106;-60
2023/10/13 03:42:32;;;;;;;39.42;27.50;;;16.70;99.90;;;;;;5061296;28;20506;-60
2023/10/13 03:44:58;;;;;;;36.80;27.67;;;16.70;99.90;;;;;;5062278;28;20123;-60
2023/10/13 03:47:32;;;;;;;40.83;27.80;;;16.70;99.90;;;;;;5063263;28;20379;-61
2023/10/13 03:50:15;;;;;;;35.15;26.23;;;16.70;99.90;;;;;;5068396;28;20411;-60
2023/10/13 03:52:41;;;;;;;37.03;28.65;;;16.70;99.90;;;;;;5056754;28;20044;-60
2023/10/13 03:55:08;;;;;;;37.85;26.33;;;16.70;99.90;;;;;;5060127;28;20051;-61
2023/10/13 03:57:34;;;;;;;40.38;27.40;;;16.70;99.90;;;;;;5057230;28;20102;-59
2023/10/13 04:00:08;;;;;;;37.45;25.73;;;16.70;99.90;;;;;;5061376;28;20041;-60
2023/10/13 04:02:33;;;;;;;41.28;26.67;;;16.70;99.90;;;;;;5056689;28;20044;-60
2023/10/13 04:05:07;;;;;;;37.03;24.83;;;16.70;99.90;;;;;;5062100;28;20045;-60
2023/10/13 04:07:39;;;;;;;37.63;24.27;;;16.70;99.90;;;;;;5056768;28;20447;-60
2023/10/13 04:16:14;;;;;;;34.05;23.52;;;16.70;99.90;;;;;;5051580;28;20037;-60
2023/10/13 04:18:50;;;;;;;31.48;23.52;;;16.60;99.90;;;;;;5054387;28;20123;-60
2023/10/13 04:21:39;;;;;;;29.40;22.75;;;16.60;99.90;;;;;;5059612;28;20389;-60
2023/10/13 04:32:15;;;;;;;32.83;22.50;;;16.60;99.90;;;;;;5058724;28;20051;-60
2023/10/13 04:34:45;;;;;;;27.73;21.73;;;16.60;99.90;;;;;;5052195;28;20094;-60
2023/10/13 04:38:20;;;;;;;33.08;22.02;;;16.60;99.90;;;;;;5060715;28;20040;-61
2023/10/13 04:40:10;;;;;;;25.40;21.73;;;16.60;99.90;;;;;;5045852;28;20456;-61
2023/10/13 04:42:49;;;;;;;30.42;21.13;;;16.60;99.90;;;;;;5049590;28;20040;-60
2023/10/13 04:45:38;;;;;;;28.45;19.85;;;16.60;99.90;;;;;;5053692;28;20045;-60
2023/10/13 04:50:46;;;;;;;31.23;20.98;;;16.60;99.90;;;;;;5057945;28;20045;-60
2023/10/13 04:53:59;;;;;;;27.73;20.83;;;16.60;99.90;;;;;;5055359;28;20114;-60
2023/10/13 04:59:35;;;;;;;24.80;18.75;;;16.60;99.90;;;;;;5058082;28;20094;-60
2023/10/13 05:51:47;;;;;;;17.60;13.10;;;16.50;99.90;;;;;;5054070;28;20037;-61
2023/10/13 06:29:56;;;;;;;11.05;8.60;;;16.40;99.90;;;;;;5071456;28;20062;-61
2023/10/13 06:32:25;;;;;;;12.93;10.00;;;16.40;99.90;;;;;;5070447;28;20048;-61
2023/10/13 06:34:58;;;;;;;14.88;9.93;;;16.40;99.90;;;;;;5071373;28;20036;-61
2023/10/13 06:37:33;;;;;;;18.67;11.20;;;16.40;99.90;;;;;;5071352;28;20379;-61
2023/10/13 06:40:22;;;;;;;17.63;11.40;;;16.40;99.90;;;;;;5055336;28;20134;-61
2023/10/13 06:42:48;;;;;;;12.88;9.48;;;16.50;99.90;;;;;;5060925;28;20064;-61
2023/10/13 06:45:16;;;;;;;11.68;8.77;;;16.50;99.90;;;;;;5050041;28;20048;-61
2023/10/13 06:47:43;;;;;;;12.52;8.98;;;16.50;99.90;;;;;;5056271;28;20041;-61
2023/10/13 06:50:16;;;;;;;13.82;9.00;;;16.60;99.90;;;;;;5059930;28;20047;-62
2023/10/13 06:52:49;;;;;;;10.75;8.10;;;16.70;99.90;;;;;;5060371;28;20519;-61
2023/10/13 06:55:27;;;;;;;14.27;8.88;;;16.70;99.90;;;;;;5066715;28;20044;-61
2023/10/13 06:57:59;;;;;;;12.77;9.13;;;16.70;99.90;;;;;;5060722;28;20051;-61
2023/10/13 07:00:34;;;;;;;10.25;9.07;;;16.80;99.90;;;;;;5062849;28;20097;-61
2023/10/13 07:03:09;;;;;;;14.90;7.40;;;16.80;99.90;;;;;;5066696;28;20510;-63
2023/10/13 07:05:41;;;;;;;12.75;8.40;;;16.90;99.90;;;;;;5070240;28;20040;-63
2023/10/13 07:08:08;;;;;;;10.23;5.93;;;16.90;99.90;;;;;;5067663;28;20391;-62
2023/10/13 07:10:48;;;;;;;10.68;5.85;;;17.00;99.90;;;;;;5069005;28;20076;-62
2023/10/13 07:13:14;;;;;;;12.15;5.95;;;17.00;99.90;;;;;;5066600;28;20052;-63
2023/10/13 07:15:44;;;;;;;10.90;6.30;;;17.00;99.90;;;;;;5069839;28;20033;-63
2023/10/13 07:18:13;;;;;;;10.77;5.32;;;17.10;99.90;;;;;;5062779;28;20048;-63
2023/10/13 07:20:43;;;;;;;10.15;6.50;;;17.10;99.90;;;;;;5064481;28;20040;-63
2023/10/13 07:23:19;;;;;;;14.65;6.60;;;17.10;99.90;;;;;;5060225;28;20407;-64
2023/10/13 07:25:54;;;;;;;10.85;5.68;;;17.20;99.90;;;;;;5059236;28;20112;-63
2023/10/13 07:28:20;;;;;;;14.07;6.20;;;17.20;99.90;;;;;;5069738;28;20048;-63
2023/10/13 07:33:21;;;;;;;18.60;7.78;;;17.20;99.90;;;;;;5070253;28;19925;-64
2023/10/13 07:35:51;;;;;;;15.15;6.95;;;17.20;99.90;;;;;;5068838;28;20438;-63
2023/10/13 07:38:21;;;;;;;16.48;7.15;;;17.20;99.90;;;;;;5069869;28;20040;-63
2023/10/13 07:40:53;;;;;;;15.13;6.95;;;17.20;99.90;;;;;;5064244;28;20043;-63
2023/10/13 07:43:21;;;;;;;16.23;7.05;;;17.20;99.90;;;;;;5061900;28;20044;-63
2023/10/13 07:45:52;;;;;;;14.13;6.82;;;17.30;99.90;;;;;;5063318;28;20503;-62
2023/10/13 07:48:20;;;;;;;20.13;7.15;;;17.30;99.90;;;;;;5064354;28;20081;-63
2023/10/13 07:50:47;;;;;;;11.63;6.47;;;17.30;99.90;;;;;;5069558;28;20119;-63
2023/10/13 07:53:24;;;;;;;17.92;6.82;;;17.30;99.90;;;;;;5069415;28;20167;-63
2023/10/13 07:55:55;;;;;;;13.60;5.57;;;17.30;99.90;;;;;;5069758;28;20036;-64
2023/10/13 07:58:24;;;;;;;16.33;5.95;;;17.30;99.90;;;;;;5068216;28;20055;-62
2023/10/13 08:01:06;;;;;;;19.58;6.88;;;17.30;99.90;;;;;;5069106;28;20502;-63
2023/10/13 08:03:47;;;;;;;13.18;6.72;;;17.30;99.90;;;;;;5069608;28;20488;-63
2023/10/13 08:08:43;;;;;;;14.85;6.05;;;17.30;99.90;;;;;;5069410;28;20044;-62
2023/10/13 08:11:34;;;;;;;15.98;5.25;;;17.30;99.90;;;;;;5057803;28;20455;-63
2023/10/13 08:14:23;;;;;;;15.43;6.30;;;17.30;99.90;;;;;;5035898;28;20047;-63
2023/10/13 08:17:00;;;;;;;15.02;6.07;;;17.30;99.90;;;;;;5060261;28;20040;-61
2023/10/13 08:19:27;;;;;;;12.18;6.72;;;17.30;99.90;;;;;;5069309;28;20040;-63
2023/10/13 08:21:59;;;;;;;15.15;6.18;;;17.30;99.90;;;;;;5068933;28;20048;-61
2023/10/13 08:32:36;;;;;;;14.35;6.68;;;17.50;99.90;;;;;;5053699;28;20098;-63
2023/10/13 08:37:46;;;;;;;12.15;6.35;;;17.60;99.90;;;;;;5054294;28;20042;-62
2023/10/13 08:43:18;;;;;;;11.77;5.70;;;17.70;99.90;;;;;;5023993;28;20044;-62
2023/10/13 08:48:14;;;;;;;11.38;6.15;;;17.80;99.90;;;;;;5021787;28;20148;-63
2023/10/13 08:53:28;;;;;;;12.45;6.47;;;17.90;99.90;;;;;;5022238;28;20046;-61
2023/10/13 08:59:04;;;;;;;19.00;6.38;;;18.00;99.90;;;;;;5022467;28;21326;-63
2023/10/13 09:01:34;;;;;;;11.80;5.53;;;18.10;99.90;;;;;;5022324;28;20041;-63
2023/10/13 09:15:59;;;;;;;15.40;5.38;;;18.50;99.90;;;;;;5049512;28;20041;-63
2023/10/13 09:25:37;;;;;;;21.38;5.45;;;18.70;99.90;;;;;;5054826;28;20041;-63
2023/10/13 09:28:14;;;;;;;12.95;4.90;;;18.80;99.90;;;;;;5050753;28;20041;-63
2023/10/13 09:30:47;;;;;;;17.88;5.85;;;18.80;99.90;;;;;;5054626;28;20044;-63
2023/10/13 09:33:15;;;;;;;14.88;5.10;;;18.90;99.90;;;;;;5056504;28;20502;-63
2023/10/13 09:35:50;;;;;;;19.27;6.25;;;18.90;99.90;;;;;;5056222;28;20166;-61
2023/10/13 09:38:16;;;;;;;14.13;5.20;;;18.90;99.90;;;;;;5059023;28;20387;-62
2023/10/13 09:41:26;;;;;;;14.23;5.43;;;18.90;99.90;;;;;;5057928;28;20404;-63
2023/10/13 09:43:32;;;;;;;12.90;5.22;;;18.90;99.90;;;;;;5053617;28;20083;-63
2023/10/13 09:46:09;;;;;;;15.45;5.55;;;18.90;99.90;;;;;;5057194;28;20041;-63
2023/10/13 09:48:46;;;;;;;17.90;5.65;;;18.90;99.90;;;;;;5060132;28;20047;-62
2023/10/13 09:51:21;;;;;;;14.50;5.47;;;18.90;99.90;;;;;;5037209;28;20099;-63
2023/10/13 09:54:09;;;;;;;15.05;5.40;;;18.90;99.90;;;;;;5048980;28;20068;-63
2023/10/13 09:56:51;;;;;;;;;;;18.90;99.90;;;;;;5051319;28;20416;-64
2023/10/13 09:59:34;;;;;;;14.02;5.63;;;18.90;99.90;;;;;;5052053;28;20294;-63
2023/10/13 10:02:08;;;;;;;15.25;5.40;;;18.90;99.90;;;;;;5049927;28;20040;-63
2023/10/13 10:04:51;;;;;;;16.80;5.47;;;18.90;99.90;;;;;;5048504;28;20553;-63
2023/10/13 10:07:32;;;;;;;15.40;4.72;;;19.00;99.90;;;;;;5052730;28;20036;-63
2023/10/13 10:10:00;;;;;;;14.93;5.30;;;19.00;99.90;;;;;;5052371;28;20086;-63
2023/10/13 10:12:48;;;;;;;12.05;4.93;;;19.10;99.90;;;;;;5047353;28;20059;-63
2023/10/13 10:15:46;;;;;;;12.10;4.53;;;19.10;99.90;;;;;;5056245;28;20036;-63
2023/10/13 10:18:25;;;;;;;15.55;5.65;;;19.10;99.90;;;;;;5049785;28;20427;-63
2023/10/13 10:20:55;;;;;;;17.52;5.97;;;19.10;99.90;;;;;;5051598;28;20048;-63
2023/10/13 10:23:48;;;;;;;13.98;4.53;;;19.10;99.90;;;;;;5057355;28;20060;-63
2023/10/13 10:26:22;;;;;;;21.38;6.00;;;19.10;99.90;;;;;;5052926;28;20044;-63
2023/10/13 10:28:47;;;;;;;18.38;5.78;;;19.10;99.90;;;;;;5054282;28;20542;-63
2023/10/13 10:31:16;;;;;;;19.42;5.72;;;19.10;99.90;;;;;;5038966;28;20083;-63
2023/10/13 10:33:42;;;;;;;13.95;4.93;;;19.20;99.90;;;;;;5051492;28;20091;-63
2023/10/13 10:36:14;;;;;;;;;;;19.20;99.90;;;;;;5060786;28;20036;-63
2023/10/13 10:38:58;;;;;;;11.35;5.57;;;19.20;99.90;;;;;;5050919;28;19925;-63
2023/10/13 10:44:21;;;;;;;15.50;5.50;;;19.20;99.90;;;;;;5049957;28;20155;-63
2023/10/13 10:47:01;;;;;;;17.92;6.20;;;19.30;99.90;;;;;;5050526;28;20034;-63
2023/10/13 10:49:29;;;;;;;16.80;6.15;;;19.30;99.90;;;;;;5048390;28;20048;-63
2023/10/13 10:52:04;;;;;;;19.58;6.72;;;19.30;99.90;;;;;;5048633;28;20060;-63
2023/10/13 10:54:31;;;;;;;13.32;5.50;;;19.40;99.90;;;;;;5047853;28;20045;-63
2023/10/13 10:57:10;;;;;;;16.02;5.07;;;19.50;99.90;;;;;;5052649;28;20057;-64
2023/10/13 10:59:39;;;;;;;14.52;5.13;;;19.50;99.90;;;;;;5048782;28;20453;-63
2023/10/13 11:02:07;;;;;;;15.40;5.65;;;19.50;99.90;;;;;;5053976;28;20095;-63
2023/10/13 11:04:41;;;;;;;16.60;5.47;;;19.50;99.90;;;;;;5046018;28;20044;-63
2023/10/13 11:07:08;;;;;;;24.40;6.20;;;19.60;99.90;;;;;;5052417;28;20036;-63
2023/10/13 11:09:45;;;;;;;16.45;6.80;;;19.60;99.90;;;;;;5053692;28;20115;-63
2023/10/13 11:12:16;;;;;;;16.40;5.40;;;19.70;99.90;;;;;;5055400;28;20045;-63
2023/10/13 11:14:47;;;;;;;14.35;5.30;;;19.70;99.90;;;;;;5052637;28;20160;-63
2023/10/13 11:17:24;;;;;;;13.18;5.60;;;19.80;99.90;;;;;;5055477;28;20090;-63
2023/10/13 11:19:50;;;;;;;13.35;5.43;;;19.70;99.90;;;;;;5058631;28;20041;-63
2023/10/13 11:22:36;;;;;;;10.38;5.30;;;19.80;99.90;;;;;;5059910;28;20043;-63
2023/10/13 11:25:09;;;;;;;15.68;5.18;;;19.80;99.90;;;;;;5055179;28;20110;-63
2023/10/13 11:33:18;;;;;;;19.55;6.13;;;19.90;99.90;;;;;;5028227;28;20044;-63
2023/10/13 11:38:26;;;;;;;29.73;6.45;;;19.90;99.90;;;;;;5048070;28;20585;-63
2023/10/13 11:44:23;;;;;;;15.13;6.65;;;20.10;99.90;;;;;;5048857;28;20086;-63
2023/10/13 11:51:48;;;;;;;13.93;5.45;;;20.20;99.90;;;;;;5046202;28;20280;-64
2023/10/13 11:54:22;;;;;;;19.05;5.63;;;20.30;99.90;;;;;;5049758;28;20035;-63
2023/10/13 11:56:49;;;;;;;16.70;5.55;;;20.40;99.90;;;;;;5049041;28;20038;-63
2023/10/13 11:59:18;;;;;;;14.35;5.72;;;20.40;99.90;;;;;;5049578;28;20490;-63
2023/10/13 12:04:34;;;;;;;13.52;5.80;;;20.50;99.90;;;;;;5045269;28;20053;-63
2023/10/13 12:12:28;;;;;;;17.95;5.53;;;20.40;99.90;;;;;;5045642;28;20093;-63
2023/10/13 12:14:55;;;;;;;17.50;5.40;;;20.40;99.90;;;;;;5041012;28;20037;-63
2023/10/13 12:17:36;;;;;;;16.63;5.40;;;20.40;99.90;;;;;;5043302;28;20452;-63
2023/10/13 12:20:05;;;;;;;15.45;5.72;;;20.40;99.90;;;;;;5046722;28;20449;-64
2023/10/13 12:22:42;;;;;;;17.30;5.72;;;20.40;99.90;;;;;;5044613;28;20048;-63
2023/10/13 12:28:12;;;;;;;19.13;5.35;;;20.50;99.90;;;;;;5040836;28;20080;-64
2023/10/13 12:30:53;;;;;;;15.25;5.70;;;20.50;99.90;;;;;;5037985;28;20041;-63
2023/10/13 12:33:26;;;;;;;16.27;5.05;;;20.50;99.90;;;;;;5045234;28;20102;-63
2023/10/13 12:36:06;;;;;;;20.65;6.05;;;20.60;99.90;;;;;;5043940;28;20077;-63
2023/10/13 12:38:37;;;;;;;17.13;5.53;;;20.60;99.90;;;;;;5045061;28;20048;-63
2023/10/13 12:52:02;;;;;;;16.60;6.38;;;20.70;99.90;;;;;;5051160;28;20048;-64
2023/10/13 12:54:35;;;;;;;14.75;5.68;;;20.70;99.90;;;;;;5047080;28;21269;-63
2023/10/13 12:57:02;;;;;;;24.30;6.72;;;20.70;99.90;;;;;;5049490;28;20052;-63
2023/10/13 12:59:28;;;;;;;19.63;6.18;;;20.70;99.90;;;;;;5045232;28;20041;-63
2023/10/13 13:01:54;;;;;;;16.75;6.18;;;20.70;99.90;;;;;;5049401;28;20400;-63
2023/10/13 13:04:25;;;;;;;14.68;6.05;;;20.80;99.90;;;;;;5044440;28;20163;-63
2023/10/13 13:06:51;;;;;;;19.10;5.45;;;20.70;99.90;;;;;;5048299;28;20452;-63
2023/10/13 13:09:25;;;;;;;16.60;6.40;;;20.70;99.90;;;;;;5044144;28;20071;-63
2023/10/13 13:11:57;;;;;;;17.20;6.32;;;20.70;99.90;;;;;;5039297;28;20036;-63
2023/10/13 13:14:30;;;;;;;19.02;6.68;;;20.70;99.90;;;;;;5041336;28;20606;-63
2023/10/13 13:17:05;;;;;;;24.73;6.88;;;20.70;99.90;;;;;;5043857;28;20075;-63
2023/10/13 13:19:36;;;;;;;23.08;6.13;;;20.80;99.90;;;;;;5048312;28;20029;-64
2023/10/13 13:22:09;;;;;;;16.65;6.13;;;20.80;99.90;;;;;;5045849;28;20047;-63
2023/10/13 13:24:35;;;;;;;26.45;6.90;;;20.80;99.90;;;;;;5045255;28;20079;-64
2023/10/13 13:27:02;;;;;;;19.42;7.25;;;20.80;99.90;;;;;;5051419;28;20063;-63
2023/10/13 13:29:29;;;;;;;15.77;7.00;;;20.80;99.90;;;;;;5050130;28;20441;-63
2023/10/13 13:31:55;;;;;;;21.73;6.18;;;20.80;99.90;;;;;;5048428;28;20045;-63
2023/10/13 13:34:21;;;;;;;;;;;20.80;99.90;;;;;;5052721;28;20106;-63
2023/10/13 13:36:52;;;;;;;16.45;6.00;;;20.80;99.90;;;;;;5049240;28;20426;-63
2023/10/13 13:39:28;;;;;;;20.98;5.57;;;20.80;99.90;;;;;;5052967;28;20032;-63
2023/10/13 13:41:56;;;;;;;17.63;5.63;;;20.80;99.90;;;;;;5050650;28;20189;-63
2023/10/13 13:44:28;;;;;;;16.17;5.97;;;20.80;99.90;;;;;;5051497;28;20115;-63
2023/10/13 13:46:56;;;;;;;16.50;4.95;;;20.80;99.90;;;;;;5054135;28;20106;-64
2023/10/13 13:49:29;;;;;;;20.00;6.20;;;20.90;99.90;;;;;;5048569;28;20122;-63
2023/10/13 13:51:56;;;;;;;21.60;6.13;;;20.90;99.90;;;;;;5049196;28;20131;-63
2023/10/13 13:54:21;;;;;;;18.45;6.22;;;20.80;99.90;;;;;;5045530;28;20496;-63
2023/10/13 13:56:48;;;;;;;20.25;6.05;;;20.80;99.90;;;;;;5048899;28;20052;-63
2023/10/13 13:59:19;;;;;;;20.10;5.75;;;20.70;99.90;;;;;;5049338;28;20044;-63
2023/10/13 14:01:45;;;;;;;15.85;6.10;;;20.60;99.90;;;;;;5043636;28;20039;-63
2023/10/13 14:04:11;;;;;;;;;;;20.60;99.90;;;;;;5047480;28;20048;-62
2023/10/13 14:06:37;;;;;;;15.70;6.38;;;20.50;99.90;;;;;;5045957;28;20310;-63
2023/10/13 14:09:14;;;;;;;18.42;5.90;;;20.50;99.90;;;;;;5049017;28;20055;-63
2023/10/13 14:14:12;;;;;;;;;;;20.40;99.90;;;;;;5052706;28;20603;-63
2023/10/13 14:16:44;;;;;;;15.70;6.72;;;20.40;99.90;;;;;;5050380;28;19956;-63
2023/10/13 14:19:11;;;;;;;18.33;6.10;;;20.30;99.90;;;;;;5047075;28;20040;-63
2023/10/13 14:21:37;;;;;;;25.15;7.63;;;20.20;99.90;;;;;;5047857;28;20040;-63
2023/10/13 14:24:12;;;;;;;;;;;20.20;99.90;;;;;;5059416;28;20037;-63
2023/10/13 14:26:38;;;;;;;17.95;7.28;;;20.10;99.90;;;;;;5053151;28;19920;-63
2023/10/13 14:29:07;;;;;;;23.13;5.82;;;20.00;99.90;;;;;;5054171;28;20551;-63
2023/10/13 14:31:36;;;;;;;18.30;6.45;;;20.00;99.90;;;;;;5057655;28;20398;-63
2023/10/13 14:34:03;;;;;;;21.33;6.47;;;20.00;99.90;;;;;;5053804;28;20086;-63
2023/10/13 14:36:29;;;;;;;21.75;6.28;;;19.90;99.90;;;;;;5049085;28;20559;-63
2023/10/13 14:38:55;;;;;;;19.48;6.63;;;19.90;99.90;;;;;;5033874;28;20136;-63
2023/10/13 14:41:21;;;;;;;21.48;8.20;;;19.80;99.90;;;;;;5047640;28;20119;-62
2023/10/13 14:43:50;;;;;;;;;;;19.70;99.90;;;;;;5049968;28;20044;-63
2023/10/13 14:46:16;;;;;;;23.48;8.32;;;19.70;99.90;;;;;;5048510;28;19916;-63
2023/10/13 14:48:48;;;;;;;14.57;7.20;;;19.50;99.90;;;;;;5048607;28;20037;-63
2023/10/13 14:51:14;;;;;;;19.67;7.80;;;19.50;99.90;;;;;;5050968;28;20047;-64
2023/10/13 14:53:43;;;;;;;17.20;8.27;;;19.40;99.90;;;;;;5029552;28;20049;-63
2023/10/13 14:56:16;;;;;;;15.50;7.57;;;19.30;99.90;;;;;;5051190;28;20036;-63
2023/10/13 14:58:43;;;;;;;13.73;7.85;;;19.30;99.90;;;;;;5051935;28;20045;-63
2023/10/13 15:01:15;;;;;;;15.57;7.82;;;19.20;99.90;;;;;;5052258;28;20036;-63
2023/10/13 15:03:45;;;;;;;21.90;8.07;;;19.20;99.90;;;;;;5054545;28;20529;-63
2023/10/13 15:06:32;;;;;;;22.33;8.40;;;19.10;99.90;;;;;;5053325;28;20058;-62
2023/10/13 15:08:59;;;;;;;19.27;8.53;;;19.00;99.90;;;;;;5056365;28;20127;-63
2023/10/13 15:11:45;;;;;;;23.23;8.52;;;19.00;99.90;;;;;;5057822;28;20097;-63
2023/10/13 15:14:13;;;;;;;16.63;7.50;;;18.90;99.90;;;;;;5054736;28;20048;-63
2023/10/13 15:16:38;;;;;;;16.08;7.15;;;18.90;99.90;;;;;;5046556;28;20041;-63
2023/10/13 15:19:06;;;;;;;20.25;7.13;;;18.80;99.90;;;;;;5049913;28;20419;-63
2023/10/13 15:21:35;;;;;;;24.17;8.70;;;18.80;99.90;;;;;;5050007;28;20162;-63
2023/10/13 15:24:13;;;;;;;22.50;7.32;;;18.80;99.90;;;;;;5045960;28;20040;-62
2023/10/13 15:26:41;;;;;;;19.20;7.63;;;18.70;99.90;;;;;;5046279;28;20277;-62
2023/10/13 15:29:12;;;;;;;19.35;8.23;;;18.70;99.90;;;;;;5047638;28;20032;-62
2023/10/13 15:31:40;;;;;;;19.02;8.23;;;18.70;99.90;;;;;;5049203;28;20074;-62
2023/10/13 15:34:14;;;;;;;18.75;6.93;;;18.60;99.90;;;;;;5052941;28;20044;-63
2023/10/13 15:36:43;;;;;;;21.42;7.72;;;18.60;99.90;;;;;;5048420;28;20044;-63
2023/10/13 15:39:15;;;;;;;17.77;7.35;;;18.60;99.90;;;;;;5054352;28;20438;-63
2023/10/13 15:41:41;;;;;;;16.52;8.43;;;18.60;99.90;;;;;;5052617;28;20138;-63
2023/10/13 15:44:13;;;;;;;17.77;7.63;;;18.50;99.90;;;;;;5052039;28;20047;-63
2023/10/13 15:46:39;;;;;;;17.92;7.22;;;18.50;99.90;;;;;;5050919;28;20418;-63
2023/10/13 15:49:08;;;;;;;;;;;18.50;99.90;;;;;;5055670;28;20463;-63
2023/10/13 15:51:36;;;;;;;14.27;7.47;;;18.50;99.90;;;;;;5054401;28;19970;-63
2023/10/13 15:54:03;;;;;;;18.60;8.07;;;18.40;99.90;;;;;;5055239;28;20126;-63
2023/10/13 15:56:32;;;;;;;14.32;6.47;;;18.40;99.90;;;;;;5041171;28;20527;-62
2023/10/13 15:59:01;;;;;;;26.25;7.68;;;18.40;99.90;;;;;;5047708;28;20033;-63
2023/10/13 16:01:28;;;;;;;18.13;6.90;;;18.40;99.90;;;;;;5058264;28;20044;-63
2023/10/13 16:03:53;;;;;;;19.45;7.40;;;18.40;99.90;;;;;;5054428;28;20053;-64
2023/10/13 16:06:19;;;;;;;16.25;7.68;;;18.40;99.90;;;;;;5051814;28;20063;-63
2023/10/13 16:08:45;;;;;;;18.55;7.22;;;18.40;99.90;;;;;;5054450;28;20045;-62
2023/10/13 16:11:17;;;;;;;19.02;8.13;;;18.40;99.90;;;;;;5057739;28;20048;-63
2023/10/13 16:13:50;;;;;;;13.52;7.32;;;18.30;99.90;;;;;;5060222;28;20060;-63
2023/10/13 16:16:16;;;;;;;19.13;7.93;;;18.30;99.90;;;;;;5060166;28;20086;-63
2023/10/13 16:18:47;;;;;;;;;;;18.30;99.90;;;;;;5063657;28;20032;-63
2023/10/13 16:21:14;;;;;;;17.05;6.90;;;18.20;99.90;;;;;;5058411;28;19934;-63
2023/10/13 16:23:40;;;;;;;15.45;7.28;;;18.20;99.90;;;;;;5057499;28;20033;-63
2023/10/13 16:26:07;;;;;;;;;;;18.20;99.90;;;;;;5043559;28;20083;-63